Time;durP1;ratioP1;P1;durP2;ratioP2;P2;SDS_P1;SDS_P2;PMS_P1;PMS_P2;Temp;Humidity;BMP_temperature;BMP_pressure;BME280_temperature;BME280_humidity;BME280_pressure;Samples;Min_cycle;Max_cycle;Signal;HPM_P1;HPM_P2
2022/07/16 00:03:03;;;;;;;8.52;2.53;;;;;;;;;;5059211;28;20179;-59
2022/07/16 00:05:29;;;;;;;6.93;2.40;;;;;;;;;;5063701;28;20194;-59
2022/07/16 00:07:56;;;;;;;6.43;2.40;;;;;;;;;;5069887;28;20232;-59
2022/07/16 00:10:22;;;;;;;7.00;2.75;;;;;;;;;;5062610;28;20194;-59
2022/07/16 00:12:48;;;;;;;6.22;2.58;;;;;;;;;;5053435;28;20181;-58
2022/07/16 00:15:14;;;;;;;5.70;2.53;;;;;;;;;;5076390;28;20186;-58
2022/07/16 00:17:40;;;;;;;10.02;2.65;;;;;;;;;;5058172;28;20198;-58
2022/07/16 00:20:07;;;;;;;9.95;2.70;;;;;;;;;;5073884;28;20647;-58
2022/07/16 00:22:33;;;;;;;10.63;3.00;;;;;;;;;;5074432;28;20190;-58
2022/07/16 00:25:00;;;;;;;10.25;2.65;;;;;;;;;;5043843;28;20187;-58
2022/07/16 00:27:26;;;;;;;5.95;2.72;;;;;;;;;;5073078;28;20312;-58
2022/07/16 00:29:52;;;;;;;10.48;2.88;;;;;;;;;;5074070;28;20202;-58
2022/07/16 00:32:18;;;;;;;6.07;3.10;;;;;;;;;;5075252;28;20178;-58
2022/07/16 00:34:44;;;;;;;10.70;3.17;;;;;;;;;;5072044;28;20228;-58
2022/07/16 00:37:11;;;;;;;6.55;2.90;;;;;;;;;;5062451;28;20190;-58
2022/07/16 00:39:37;;;;;;;8.82;3.08;;;;;;;;;;5072128;28;20293;-58
2022/07/16 00:42:03;;;;;;;9.20;3.42;;;;;;;;;;5058484;28;20182;-58
2022/07/16 00:44:29;;;;;;;9.85;2.75;;;;;;;;;;5045414;28;20215;-58
2022/07/16 00:46:55;;;;;;;10.75;3.00;;;;;;;;;;5055579;28;20281;-59
2022/07/16 00:49:21;;;;;;;12.32;3.00;;;;;;;;;;5070709;28;20241;-58
2022/07/16 00:51:51;;;;;;;6.55;2.72;;;;;;;;;;5055880;28;20184;-58
2022/07/16 00:54:18;;;;;;;11.45;3.20;;;;;;;;;;5066893;28;20591;-58
2022/07/16 00:56:44;;;;;;;8.85;3.03;;;;;;;;;;5074596;28;20182;-58
2022/07/16 00:59:12;;;;;;;10.80;3.03;;;;;;;;;;5069517;28;20551;-58
2022/07/16 01:01:39;;;;;;;8.52;2.78;;;;;;;;;;5063855;28;20194;-58
2022/07/16 01:04:07;;;;;;;8.10;2.78;;;;;;;;;;5070180;28;20178;-58
2022/07/16 01:06:33;;;;;;;8.88;2.72;;;;;;;;;;5075423;28;20178;-58
2022/07/16 01:08:59;;;;;;;8.63;3.00;;;;;;;;;;5071521;28;20184;-58
2022/07/16 01:11:26;;;;;;;7.13;2.60;;;;;;;;;;5055957;28;20584;-58
2022/07/16 01:13:52;;;;;;;8.23;2.50;;;;;;;;;;5039872;28;20183;-58
2022/07/16 01:16:19;;;;;;;10.90;2.58;;;;;;;;;;5056497;28;20564;-58
2022/07/16 01:18:46;;;;;;;8.63;2.45;;;;;;;;;;5043789;28;20210;-58
2022/07/16 01:21:13;;;;;;;7.13;2.20;;;;;;;;;;5052999;28;20194;-58
2022/07/16 01:23:39;;;;;;;6.07;2.30;;;;;;;;;;5067750;28;20178;-58
2022/07/16 01:26:07;;;;;;;4.38;1.90;;;;;;;;;;5074570;28;20171;-58
2022/07/16 01:28:34;;;;;;;7.13;2.13;;;;;;;;;;5051748;28;20222;-58
2022/07/16 01:31:00;;;;;;;3.50;1.90;;;;;;;;;;5055352;28;20187;-57
2022/07/16 01:33:26;;;;;;;7.78;2.13;;;;;;;;;;5062319;28;20240;-57
2022/07/16 01:35:55;;;;;;;5.53;2.03;;;;;;;;;;5062626;28;20187;-58
2022/07/16 01:38:21;;;;;;;5.30;2.20;;;;;;;;;;5055337;28;20241;-57
2022/07/16 01:40:47;;;;;;;5.60;2.10;;;;;;;;;;5055099;28;20187;-56
2022/07/16 01:43:14;;;;;;;5.70;2.00;;;;;;;;;;5061596;28;20624;-57
2022/07/16 01:45:41;;;;;;;10.63;2.10;;;;;;;;;;5057267;28;20186;-57
2022/07/16 01:48:07;;;;;;;6.10;2.00;;;;;;;;;;5031326;28;20235;-58
2022/07/16 01:50:33;;;;;;;5.63;2.10;;;;;;;;;;5013420;28;20260;-57
2022/07/16 01:52:59;;;;;;;4.97;2.25;;;;;;;;;;5029749;28;20215;-58
2022/07/16 01:55:25;;;;;;;8.23;2.25;;;;;;;;;;5033388;28;20187;-56
2022/07/16 01:57:51;;;;;;;6.90;2.25;;;;;;;;;;5033728;28;20196;-57
2022/07/16 02:00:17;;;;;;;7.20;2.03;;;;;;;;;;5033044;28;20195;-57
2022/07/16 02:02:44;;;;;;;4.82;2.20;;;;;;;;;;5023519;28;20196;-60
2022/07/16 02:05:10;;;;;;;4.93;2.30;;;;;;;;;;5032431;28;20230;-57
2022/07/16 02:07:36;;;;;;;4.90;2.67;;;;;;;;;;5029058;28;20220;-58
2022/07/16 02:10:02;;;;;;;5.53;2.40;;;;;;;;;;5031449;28;20180;-58
2022/07/16 02:12:28;;;;;;;7.82;2.22;;;;;;;;;;5034711;28;20214;-57
2022/07/16 02:14:54;;;;;;;6.20;2.17;;;;;;;;;;5030307;28;20230;-57
2022/07/16 02:17:21;;;;;;;7.10;2.40;;;;;;;;;;5017484;28;20183;-58
2022/07/16 02:19:47;;;;;;;8.20;2.40;;;;;;;;;;5027764;28;20231;-58
2022/07/16 02:22:14;;;;;;;3.65;2.28;;;;;;;;;;5031876;28;20183;-57
2022/07/16 02:24:41;;;;;;;7.78;2.50;;;;;;;;;;5030737;28;20180;-58
2022/07/16 02:27:07;;;;;;;6.10;2.60;;;;;;;;;;5028988;28;20184;-58
2022/07/16 02:29:33;;;;;;;5.47;2.45;;;;;;;;;;5024735;28;20206;-58
2022/07/16 02:31:59;;;;;;;4.57;2.50;;;;;;;;;;5034282;28;20186;-58
2022/07/16 02:34:25;;;;;;;4.15;2.40;;;;;;;;;;5031974;28;20188;-59
2022/07/16 02:36:53;;;;;;;5.95;2.55;;;;;;;;;;5015436;28;20215;-59
2022/07/16 02:39:19;;;;;;;9.30;2.85;;;;;;;;;;5018929;28;20256;-59
2022/07/16 02:41:45;;;;;;;10.95;2.80;;;;;;;;;;5014400;28;20180;-58
2022/07/16 02:44:11;;;;;;;9.93;2.70;;;;;;;;;;5027048;28;20188;-58
2022/07/16 02:46:37;;;;;;;6.05;2.60;;;;;;;;;;5038826;28;20222;-59
2022/07/16 02:49:03;;;;;;;6.68;2.55;;;;;;;;;;5062380;28;20190;-60
2022/07/16 02:51:29;;;;;;;7.93;2.28;;;;;;;;;;5016228;28;20186;-59
2022/07/16 02:53:56;;;;;;;3.30;1.45;;;;;;;;;;5037677;28;20220;-59
2022/07/16 02:56:22;;;;;;;7.15;1.77;;;;;;;;;;5038579;28;20186;-59
2022/07/16 02:58:48;;;;;;;7.40;1.60;;;;;;;;;;5038347;28;20213;-59
2022/07/16 03:01:14;;;;;;;3.15;1.38;;;;;;;;;;5073052;28;20186;-58
2022/07/16 03:03:40;;;;;;;5.25;1.40;;;;;;;;;;5071981;28;20194;-58
2022/07/16 03:06:06;;;;;;;5.55;1.50;;;;;;;;;;5071873;28;20191;-58
2022/07/16 03:08:33;;;;;;;7.25;1.40;;;;;;;;;;5057210;28;20194;-58
2022/07/16 03:10:59;;;;;;;6.40;1.48;;;;;;;;;;5058998;28;20179;-58
2022/07/16 03:13:25;;;;;;;7.63;1.40;;;;;;;;;;5038682;28;20179;-58
2022/07/16 03:15:53;;;;;;;3.15;1.23;;;;;;;;;;5054689;28;20178;-58
2022/07/16 03:18:21;;;;;;;3.35;1.33;;;;;;;;;;5033626;28;20600;-58
2022/07/16 03:20:47;;;;;;;7.45;1.95;;;;;;;;;;5035378;28;20215;-58
2022/07/16 03:23:13;;;;;;;6.60;1.45;;;;;;;;;;5055113;28;20190;-59
2022/07/16 03:25:41;;;;;;;7.95;1.98;;;;;;;;;;5067645;28;20187;-58
2022/07/16 03:28:08;;;;;;;4.45;1.60;;;;;;;;;;5053775;28;20246;-58
2022/07/16 03:30:34;;;;;;;6.28;1.30;;;;;;;;;;5055377;28;20273;-58
2022/07/16 03:33:00;;;;;;;8.48;1.92;;;;;;;;;;5071811;28;20714;-58
2022/07/16 03:35:26;;;;;;;9.73;1.60;;;;;;;;;;5073167;28;20189;-58
2022/07/16 03:40:39;;;;;;;5.88;1.77;;;;;;;;;;5052566;28;20210;-58
2022/07/16 03:43:05;;;;;;;6.30;1.85;;;;;;;;;;5053661;28;20644;-58
2022/07/16 03:45:31;;;;;;;5.78;1.83;;;;;;;;;;5052023;28;20665;-59
2022/07/16 03:47:57;;;;;;;13.23;1.90;;;;;;;;;;5042591;28;20230;-58
2022/07/16 03:50:24;;;;;;;6.28;1.60;;;;;;;;;;5038314;28;20644;-59
2022/07/16 03:52:50;;;;;;;9.75;1.95;;;;;;;;;;5055062;28;20209;-59
2022/07/16 03:55:17;;;;;;;7.35;1.63;;;;;;;;;;5071819;28;20244;-59
2022/07/16 03:57:44;;;;;;;7.93;1.80;;;;;;;;;;5062026;28;20221;-59
2022/07/16 04:00:10;;;;;;;6.55;1.90;;;;;;;;;;5071049;28;20178;-58
2022/07/16 04:02:36;;;;;;;6.63;1.92;;;;;;;;;;5059352;28;20198;-58
2022/07/16 04:05:03;;;;;;;4.85;1.75;;;;;;;;;;5064553;28;20187;-59
2022/07/16 04:07:29;;;;;;;3.70;1.60;;;;;;;;;;5064362;28;20191;-59
2022/07/16 04:09:55;;;;;;;6.82;1.90;;;;;;;;;;5050996;28;20217;-58
2022/07/16 04:12:22;;;;;;;6.20;1.67;;;;;;;;;;5071976;28;20254;-58
2022/07/16 04:14:49;;;;;;;6.15;2.00;;;;;;;;;;5061770;28;20571;-59
2022/07/16 04:17:15;;;;;;;4.40;1.60;;;;;;;;;;5039931;28;20240;-58
2022/07/16 04:19:41;;;;;;;6.55;1.90;;;;;;;;;;5059214;28;20221;-59
2022/07/16 04:22:07;;;;;;;5.63;1.90;;;;;;;;;;5055006;28;20175;-58
2022/07/16 04:24:33;;;;;;;5.15;1.67;;;;;;;;;;5071150;28;20187;-59
2022/07/16 04:27:00;;;;;;;5.18;1.95;;;;;;;;;;5046778;28;20179;-57
2022/07/16 04:29:26;;;;;;;6.18;2.13;;;;;;;;;;5058903;28;20255;-58
2022/07/16 04:31:52;;;;;;;10.57;2.45;;;;;;;;;;5070495;28;20192;-55
2022/07/16 04:34:18;;;;;;;6.90;2.17;;;;;;;;;;5054408;28;20666;-58
2022/07/16 04:36:44;;;;;;;5.20;1.95;;;;;;;;;;5043936;28;20187;-57
2022/07/16 04:39:11;;;;;;;5.65;2.20;;;;;;;;;;5065963;28;20225;-58
2022/07/16 04:41:38;;;;;;;6.63;2.00;;;;;;;;;;5072177;28;20179;-58
2022/07/16 04:44:04;;;;;;;8.05;2.20;;;;;;;;;;5053079;28;20183;-58
2022/07/16 04:46:30;;;;;;;7.93;1.88;;;;;;;;;;5068481;28;20206;-58
2022/07/16 04:48:56;;;;;;;6.65;1.70;;;;;;;;;;5061575;28;20204;-58
2022/07/16 04:51:22;;;;;;;6.53;2.03;;;;;;;;;;5069566;28;20187;-58
2022/07/16 04:53:48;;;;;;;8.13;1.92;;;;;;;;;;5069744;28;20182;-58
2022/07/16 04:56:15;;;;;;;8.57;2.30;;;;;;;;;;5066166;28;20219;-58
2022/07/16 04:58:41;;;;;;;6.88;2.25;;;;;;;;;;5070020;28;20217;-58
2022/07/16 05:01:07;;;;;;;6.80;2.00;;;;;;;;;;5064881;28;20210;-58
2022/07/16 05:03:33;;;;;;;6.72;2.08;;;;;;;;;;5038282;28;20202;-59
2022/07/16 05:05:59;;;;;;;7.63;1.95;;;;;;;;;;5040302;28;20190;-59
2022/07/16 05:08:25;;;;;;;7.20;2.17;;;;;;;;;;5052075;28;20246;-59
2022/07/16 05:10:51;;;;;;;10.82;2.10;;;;;;;;;;5071265;28;20320;-59
2022/07/16 05:13:18;;;;;;;10.57;2.67;;;;;;;;;;5047328;28;20187;-59
2022/07/16 05:15:44;;;;;;;11.07;2.70;;;;;;;;;;5055960;28;20193;-59
2022/07/16 05:18:11;;;;;;;5.97;2.10;;;;;;;;;;5055843;28;20215;-58
2022/07/16 05:20:37;;;;;;;7.80;1.90;;;;;;;;;;5053909;28;20245;-59
2022/07/16 05:23:03;;;;;;;8.73;2.05;;;;;;;;;;5073274;28;20182;-59
2022/07/16 05:25:30;;;;;;;4.78;2.00;;;;;;;;;;5039344;28;20175;-59
2022/07/16 05:27:56;;;;;;;5.80;1.70;;;;;;;;;;5072731;28;20644;-59
2022/07/16 05:30:22;;;;;;;7.50;1.65;;;;;;;;;;5056244;28;20197;-59
2022/07/16 05:32:50;;;;;;;6.97;1.52;;;;;;;;;;5073296;28;20194;-59
2022/07/16 05:35:16;;;;;;;6.38;1.40;;;;;;;;;;5069428;28;20190;-59
2022/07/16 05:37:43;;;;;;;5.32;1.20;;;;;;;;;;5068505;28;20350;-59
2022/07/16 05:40:10;;;;;;;8.38;2.10;;;;;;;;;;5072184;28;20217;-59
2022/07/16 05:42:36;;;;;;;7.30;1.70;;;;;;;;;;5075206;28;20620;-59
2022/07/16 05:45:04;;;;;;;5.45;1.90;;;;;;;;;;5054330;28;20175;-60
2022/07/16 05:47:32;;;;;;;8.90;2.13;;;;;;;;;;5073944;28;20238;-60
2022/07/16 05:49:59;;;;;;;5.50;1.60;;;;;;;;;;5039094;28;20186;-59
2022/07/16 05:52:25;;;;;;;5.32;1.80;;;;;;;;;;5075338;28;20174;-60
2022/07/16 05:54:51;;;;;;;10.77;1.48;;;;;;;;;;5061733;28;20178;-60
2022/07/16 05:57:17;;;;;;;4.30;1.50;;;;;;;;;;5068554;28;20214;-60
2022/07/16 05:59:44;;;;;;;5.75;1.73;;;;;;;;;;5038068;28;20210;-59
2022/07/16 06:02:10;;;;;;;5.93;1.50;;;;;;;;;;5064661;28;20199;-59
2022/07/16 06:04:36;;;;;;;8.48;1.52;;;;;;;;;;5072259;28;20179;-59
2022/07/16 06:07:03;;;;;;;8.98;1.40;;;;;;;;;;5038615;28;20561;-59
2022/07/16 06:09:29;;;;;;;7.07;1.90;;;;;;;;;;5052814;28;20213;-60
2022/07/16 06:11:55;;;;;;;6.55;1.85;;;;;;;;;;5069040;28;20195;-59
2022/07/16 06:14:21;;;;;;;5.43;1.55;;;;;;;;;;5067121;28;20179;-60
2022/07/16 06:16:48;;;;;;;7.28;1.40;;;;;;;;;;5073828;28;20187;-60
2022/07/16 06:19:14;;;;;;;5.55;1.27;;;;;;;;;;5075319;28;20359;-60
2022/07/16 06:21:40;;;;;;;4.95;1.20;;;;;;;;;;5056292;28;20201;-59
2022/07/16 06:24:06;;;;;;;7.82;1.55;;;;;;;;;;5072096;28;20182;-60
2022/07/16 06:26:32;;;;;;;7.82;1.30;;;;;;;;;;5058787;28;20244;-59
2022/07/16 06:28:58;;;;;;;5.93;1.50;;;;;;;;;;5072099;28;20719;-60
2022/07/16 06:31:25;;;;;;;3.25;1.25;;;;;;;;;;5055289;28;20285;-59
2022/07/16 06:33:51;;;;;;;7.38;1.90;;;;;;;;;;5071859;28;20669;-59
2022/07/16 06:36:17;;;;;;;12.23;1.90;;;;;;;;;;5039634;28;20190;-60
2022/07/16 06:38:43;;;;;;;6.25;1.70;;;;;;;;;;5057081;28;20203;-60
2022/07/16 06:41:09;;;;;;;5.65;1.45;;;;;;;;;;5073728;28;20221;-60
2022/07/16 06:43:41;;;;;;;6.82;1.42;;;;;;;;;;5073050;28;20708;-60
2022/07/16 06:46:07;;;;;;;9.00;1.92;;;;;;;;;;5055550;28;20257;-60
2022/07/16 06:48:33;;;;;;;6.95;1.40;;;;;;;;;;5035731;28;20266;-59
2022/07/16 06:51:00;;;;;;;9.90;1.58;;;;;;;;;;5054206;28;20195;-59
2022/07/16 06:53:27;;;;;;;6.68;1.35;;;;;;;;;;5072351;28;20549;-60
2022/07/16 06:55:53;;;;;;;7.15;1.30;;;;;;;;;;5072370;28;20565;-60
2022/07/16 06:58:19;;;;;;;6.00;1.45;;;;;;;;;;5056126;28;20715;-59
2022/07/16 07:00:45;;;;;;;5.78;1.30;;;;;;;;;;5051134;28;20194;-59
2022/07/16 07:03:11;;;;;;;5.47;1.20;;;;;;;;;;5064777;28;20183;-58
2022/07/16 07:05:38;;;;;;;9.80;1.70;;;;;;;;;;5066718;28;20182;-58
2022/07/16 07:08:05;;;;;;;7.63;1.40;;;;;;;;;;5072005;28;20658;-58
2022/07/16 07:10:31;;;;;;;5.32;1.40;;;;;;;;;;5071776;28;20214;-59
2022/07/16 07:12:57;;;;;;;6.75;1.30;;;;;;;;;;5070258;28;20695;-59
2022/07/16 07:15:23;;;;;;;4.90;1.20;;;;;;;;;;5053205;28;20182;-59
2022/07/16 07:17:50;;;;;;;5.68;1.10;;;;;;;;;;5070761;28;20190;-62
2022/07/16 07:20:16;;;;;;;4.72;1.20;;;;;;;;;;5071291;28;20185;-59
2022/07/16 07:22:43;;;;;;;5.90;1.13;;;;;;;;;;5058425;28;20655;-59
2022/07/16 07:25:09;;;;;;;3.33;1.23;;;;;;;;;;5065261;28;21782;-59
2022/07/16 07:27:36;;;;;;;7.35;1.40;;;;;;;;;;5052823;28;20194;-59
2022/07/16 07:30:03;;;;;;;3.80;1.23;;;;;;;;;;5063496;28;20189;-59
2022/07/16 07:32:29;;;;;;;8.48;1.65;;;;;;;;;;5065715;28;20183;-59
2022/07/16 07:34:55;;;;;;;7.22;1.48;;;;;;;;;;5065112;28;20187;-59
2022/07/16 07:37:22;;;;;;;5.93;1.90;;;;;;;;;;5047813;28;20237;-59
2022/07/16 07:39:48;;;;;;;5.05;1.77;;;;;;;;;;5053928;28;20755;-59
2022/07/16 07:42:14;;;;;;;8.68;1.67;;;;;;;;;;5062344;28;20667;-58
2022/07/16 07:44:40;;;;;;;5.82;1.60;;;;;;;;;;5060378;28;20285;-58
2022/07/16 07:47:06;;;;;;;6.18;1.17;;;;;;;;;;5054866;28;20695;-58
2022/07/16 07:49:33;;;;;;;9.02;1.48;;;;;;;;;;5056897;28;20189;-58
2022/07/16 07:51:59;;;;;;;6.82;1.30;;;;;;;;;;5048201;28;20186;-58
2022/07/16 07:54:25;;;;;;;4.05;1.10;;;;;;;;;;5033166;28;20186;-59
2022/07/16 07:56:51;;;;;;;7.53;1.40;;;;;;;;;;5048903;28;20182;-58
2022/07/16 07:59:18;;;;;;;5.80;1.00;;;;;;;;;;5035135;28;20584;-58
2022/07/16 08:01:44;;;;;;;4.85;1.25;;;;;;;;;;5034871;28;20194;-58
2022/07/16 08:04:10;;;;;;;8.10;1.10;;;;;;;;;;5070630;28;20204;-58
2022/07/16 08:06:37;;;;;;;5.15;1.10;;;;;;;;;;5059244;28;20198;-58
2022/07/16 08:09:03;;;;;;;4.47;1.20;;;;;;;;;;5062466;28;20194;-58
2022/07/16 08:11:29;;;;;;;6.03;1.00;;;;;;;;;;5072693;28;20175;-58
2022/07/16 08:13:55;;;;;;;5.63;1.10;;;;;;;;;;5061880;28;20525;-58
2022/07/16 08:16:21;;;;;;;3.90;1.20;;;;;;;;;;5073072;28;20206;-58
2022/07/16 08:18:47;;;;;;;8.32;1.40;;;;;;;;;;5069902;28;20589;-58
2022/07/16 08:21:13;;;;;;;6.35;1.17;;;;;;;;;;5054748;28;20198;-58
2022/07/16 08:26:24;;;;;;;3.50;1.00;;;;;;;;;;5037030;28;20203;-58
2022/07/16 08:28:50;;;;;;;4.20;1.38;;;;;;;;;;5052915;28;20561;-58
2022/07/16 08:31:18;;;;;;;4.05;1.20;;;;;;;;;;5071361;28;20183;-58
2022/07/16 08:33:44;;;;;;;11.90;1.40;;;;;;;;;;5054103;28;20182;-58
2022/07/16 08:36:10;;;;;;;7.90;1.55;;;;;;;;;;5057139;28;20193;-58
2022/07/16 08:38:36;;;;;;;4.68;1.52;;;;;;;;;;5076499;28;20205;-58
2022/07/16 08:41:02;;;;;;;5.85;1.40;;;;;;;;;;5039212;28;20191;-58
2022/07/16 08:43:30;;;;;;;4.47;1.35;;;;;;;;;;5057810;28;20613;-58
2022/07/16 08:45:56;;;;;;;5.47;1.60;;;;;;;;;;5065030;28;20657;-58
2022/07/16 08:48:24;;;;;;;7.28;1.73;;;;;;;;;;5059635;28;20229;-58
2022/07/16 08:50:52;;;;;;;6.38;1.35;;;;;;;;;;5056283;28;20563;-58
2022/07/16 08:53:22;;;;;;;5.05;1.27;;;;;;;;;;5041218;28;20578;-58
2022/07/16 08:55:51;;;;;;;6.63;1.25;;;;;;;;;;5057660;28;20190;-58
2022/07/16 08:58:18;;;;;;;5.32;1.30;;;;;;;;;;5074506;28;20202;-58
2022/07/16 09:00:45;;;;;;;3.95;1.00;;;;;;;;;;5060196;28;20186;-58
2022/07/16 09:03:13;;;;;;;3.50;1.10;;;;;;;;;;5076023;28;20224;-58
2022/07/16 09:05:40;;;;;;;7.22;1.40;;;;;;;;;;5074841;28;20178;-58
2022/07/16 09:08:06;;;;;;;3.53;1.45;;;;;;;;;;5073557;28;20323;-57
2022/07/16 09:10:36;;;;;;;4.05;1.20;;;;;;;;;;5038163;28;20270;-58
2022/07/16 09:13:02;;;;;;;4.20;1.13;;;;;;;;;;5056989;28;20175;-60
2022/07/16 09:15:36;;;;;;;5.22;1.20;;;;;;;;;;5073529;28;20237;-58
2022/07/16 09:18:09;;;;;;;6.72;1.20;;;;;;;;;;5062530;28;22138;-59
2022/07/16 09:20:37;;;;;;;5.75;1.48;;;;;;;;;;5069460;28;20522;-58
2022/07/16 09:23:04;;;;;;;8.75;1.60;;;;;;;;;;5075502;28;20263;-58
2022/07/16 09:25:30;;;;;;;5.90;1.48;;;;;;;;;;5074048;28;20209;-58
2022/07/16 09:27:57;;;;;;;6.60;1.33;;;;;;;;;;5056100;28;20190;-58
2022/07/16 09:30:24;;;;;;;8.00;1.70;;;;;;;;;;5072978;28;20235;-58
2022/07/16 09:32:50;;;;;;;5.07;1.20;;;;;;;;;;5074078;28;20201;-58
2022/07/16 09:35:18;;;;;;;2.90;1.13;;;;;;;;;;5072216;28;20179;-58
2022/07/16 09:37:54;;;;;;;6.88;1.42;;;;;;;;;;5075196;28;20182;-58
2022/07/16 09:40:38;;;;;;;2.90;1.20;;;;;;;;;;5046052;28;20277;-59
2022/07/16 09:43:14;;;;;;;5.80;1.50;;;;;;;;;;5055230;28;20190;-58
2022/07/16 09:45:41;;;;;;;5.68;1.50;;;;;;;;;;5037519;28;20193;-59
2022/07/16 09:48:23;;;;;;;7.95;1.40;;;;;;;;;;5054411;28;20288;-58
2022/07/16 09:50:51;;;;;;;8.65;1.50;;;;;;;;;;5073741;28;20324;-59
2022/07/16 09:53:18;;;;;;;7.00;1.90;;;;;;;;;;5056956;28;20268;-58
2022/07/16 09:56:02;;;;;;;7.43;1.67;;;;;;;;;;5055553;28;20183;-58
2022/07/16 09:58:29;;;;;;;5.10;1.55;;;;;;;;;;5069011;28;20694;-58
2022/07/16 10:00:55;;;;;;;7.43;1.65;;;;;;;;;;5071278;28;20191;-58
2022/07/16 10:03:22;;;;;;;5.38;1.60;;;;;;;;;;5073520;28;20652;-58
2022/07/16 10:05:48;;;;;;;8.93;1.77;;;;;;;;;;5065410;28;20207;-60
2022/07/16 10:08:15;;;;;;;4.50;1.10;;;;;;;;;;5063850;28;20240;-58
2022/07/16 10:10:41;;;;;;;12.05;1.60;;;;;;;;;;5073973;28;20183;-58
2022/07/16 10:13:09;;;;;;;6.20;2.10;;;;;;;;;;5056818;28;20201;-57
2022/07/16 10:15:36;;;;;;;4.82;1.35;;;;;;;;;;5073286;28;20182;-57
2022/07/16 10:18:02;;;;;;;6.80;1.33;;;;;;;;;;5055553;28;20556;-56
2022/07/16 10:20:34;;;;;;;8.82;1.40;;;;;;;;;;5072138;28;20197;-56
2022/07/16 10:23:00;;;;;;;6.47;1.40;;;;;;;;;;5073457;28;20205;-56
2022/07/16 10:25:27;;;;;;;10.50;1.40;;;;;;;;;;5073363;28;20182;-57
2022/07/16 10:27:54;;;;;;;8.38;1.60;;;;;;;;;;5072874;28;20187;-56
2022/07/16 10:30:20;;;;;;;7.93;1.52;;;;;;;;;;5051219;28;20190;-57
2022/07/16 10:33:10;;;;;;;5.35;1.20;;;;;;;;;;5073261;28;20189;-57
2022/07/16 10:35:49;;;;;;;5.22;1.30;;;;;;;;;;5066552;28;20187;-58
2022/07/16 10:38:18;;;;;;;7.63;1.73;;;;;;;;;;5060961;28;20256;-58
2022/07/16 10:40:44;;;;;;;6.22;1.55;;;;;;;;;;5055897;28;20183;-58
2022/07/16 10:43:11;;;;;;;4.90;1.33;;;;;;;;;;5053939;28;20674;-58
2022/07/16 10:45:51;;;;;;;6.15;1.42;;;;;;;;;;5069253;28;20186;-57
2022/07/16 10:48:18;;;;;;;9.02;1.88;;;;;;;;;;5067439;28;20261;-57
2022/07/16 10:51:03;;;;;;;8.68;1.55;;;;;;;;;;5071011;28;20186;-58
2022/07/16 10:53:29;;;;;;;4.40;1.40;;;;;;;;;;5065826;28;20175;-58
2022/07/16 10:55:55;;;;;;;6.35;1.15;;;;;;;;;;5053802;28;20209;-58
2022/07/16 10:58:26;;;;;;;6.93;1.38;;;;;;;;;;5063706;28;20692;-58
2022/07/16 11:00:53;;;;;;;7.85;1.90;;;;;;;;;;5070395;28;20191;-58
2022/07/16 11:03:23;;;;;;;5.03;1.30;;;;;;;;;;5073854;28;20190;-57
2022/07/16 11:05:49;;;;;;;5.40;1.38;;;;;;;;;;5072226;28;20183;-58
2022/07/16 11:08:15;;;;;;;6.05;1.50;;;;;;;;;;5056662;28;20244;-57
2022/07/16 11:10:43;;;;;;;5.22;1.60;;;;;;;;;;5053000;28;20660;-58
2022/07/16 11:13:16;;;;;;;4.50;1.50;;;;;;;;;;5053258;28;20660;-58
2022/07/16 11:15:43;;;;;;;6.15;1.52;;;;;;;;;;5052702;28;20190;-58
2022/07/16 11:18:15;;;;;;;12.23;1.65;;;;;;;;;;5060739;28;20365;-56
2022/07/16 11:20:42;;;;;;;4.55;1.20;;;;;;;;;;5050508;28;20190;-57
2022/07/16 11:23:08;;;;;;;4.38;1.33;;;;;;;;;;5073337;28;20215;-56
2022/07/16 11:25:35;;;;;;;6.80;1.20;;;;;;;;;;5072308;28;20667;-55
2022/07/16 11:28:02;;;;;;;10.80;2.00;;;;;;;;;;5037689;28;20210;-57
2022/07/16 11:30:28;;;;;;;6.10;1.38;;;;;;;;;;5069211;28;20178;-58
2022/07/16 11:32:54;;;;;;;8.43;1.40;;;;;;;;;;5039312;28;20171;-58
2022/07/16 11:35:21;;;;;;;10.60;2.03;;;;;;;;;;5069417;28;20640;-56
2022/07/16 11:37:57;;;;;;;7.63;1.67;;;;;;;;;;5071779;28;20194;-58
2022/07/16 11:40:37;;;;;;;8.98;1.40;;;;;;;;;;5054969;28;20221;-57
2022/07/16 11:43:03;;;;;;;7.60;1.35;;;;;;;;;;5063028;28;20182;-57
2022/07/16 11:45:35;;;;;;;5.28;1.35;;;;;;;;;;5037194;28;20560;-56
2022/07/16 11:48:09;;;;;;;6.78;1.63;;;;;;;;;;5037991;28;20223;-55
2022/07/16 11:50:35;;;;;;;4.90;1.42;;;;;;;;;;5069560;28;20244;-56
2022/07/16 11:53:01;;;;;;;8.10;1.70;;;;;;;;;;5054932;28;20232;-57
2022/07/16 11:55:27;;;;;;;6.55;1.67;;;;;;;;;;5071663;28;20258;-57
2022/07/16 11:57:53;;;;;;;7.13;1.65;;;;;;;;;;5022751;28;20179;-56
2022/07/16 12:00:20;;;;;;;9.93;1.85;;;;;;;;;;5064370;28;20190;-56
2022/07/16 12:02:46;;;;;;;7.32;1.50;;;;;;;;;;5072787;28;20185;-56
2022/07/16 12:05:12;;;;;;;8.35;1.63;;;;;;;;;;5071939;28;20197;-55
2022/07/16 12:07:38;;;;;;;7.22;1.45;;;;;;;;;;5037713;28;20183;-56
2022/07/16 12:10:05;;;;;;;5.95;1.33;;;;;;;;;;5064653;28;20232;-56
2022/07/16 12:12:34;;;;;;;6.05;1.30;;;;;;;;;;5075161;28;20214;-57
2022/07/16 12:15:00;;;;;;;5.30;1.33;;;;;;;;;;5073721;28;20215;-57
2022/07/16 12:17:34;;;;;;;4.78;1.25;;;;;;;;;;5045999;28;20179;-56
2022/07/16 12:20:03;;;;;;;8.60;1.80;;;;;;;;;;5037066;28;20293;-54
2022/07/16 12:22:45;;;;;;;9.32;1.63;;;;;;;;;;5055725;28;20643;-56
2022/07/16 12:25:33;;;;;;;5.47;1.20;;;;;;;;;;5061930;28;21120;-53
2022/07/16 12:28:10;;;;;;;8.00;1.35;;;;;;;;;;5068607;28;20273;-53
2022/07/16 12:30:39;;;;;;;2.75;1.20;;;;;;;;;;5073431;28;20205;-56
2022/07/16 12:33:06;;;;;;;5.85;1.38;;;;;;;;;;5056416;28;20583;-55
2022/07/16 12:35:47;;;;;;;8.02;1.60;;;;;;;;;;5038789;28;20693;-55
2022/07/16 12:38:33;;;;;;;4.55;1.23;;;;;;;;;;5058692;28;20210;-55
2022/07/16 12:40:59;;;;;;;4.25;1.45;;;;;;;;;;5075211;28;20202;-56
2022/07/16 12:43:25;;;;;;;5.68;1.38;;;;;;;;;;5074023;28;20265;-55
2022/07/16 12:45:52;;;;;;;4.53;1.10;;;;;;;;;;5059209;28;20187;-55
2022/07/16 12:48:18;;;;;;;5.32;1.30;;;;;;;;;;5060880;28;20229;-54
2022/07/16 12:50:44;;;;;;;7.45;1.52;;;;;;;;;;5074799;28;20201;-55
2022/07/16 12:53:11;;;;;;;5.82;1.45;;;;;;;;;;5076117;28;20186;-54
2022/07/16 13:01:08;;;;;;;5.45;1.30;;;;;;;;;;5075891;28;20204;-55
2022/07/16 13:03:34;;;;;;;4.80;1.25;;;;;;;;;;5075923;28;20187;-53
2022/07/16 13:06:00;;;;;;;3.83;1.25;;;;;;;;;;5074865;28;20201;-55
2022/07/16 13:08:26;;;;;;;4.18;1.13;;;;;;;;;;5037889;28;20190;-55
2022/07/16 13:10:53;;;;;;;4.93;1.38;;;;;;;;;;5067142;28;20186;-54
2022/07/16 13:13:19;;;;;;;7.00;1.52;;;;;;;;;;5074620;28;20186;-54
2022/07/16 13:15:45;;;;;;;5.60;1.48;;;;;;;;;;5073471;28;20182;-54
2022/07/16 13:18:11;;;;;;;6.97;1.67;;;;;;;;;;5071622;28;20191;-56
2022/07/16 13:20:37;;;;;;;3.97;1.10;;;;;;;;;;5066275;28;20199;-55
2022/07/16 13:23:04;;;;;;;5.65;1.30;;;;;;;;;;5045612;28;20638;-55
2022/07/16 13:25:30;;;;;;;6.68;1.55;;;;;;;;;;5042835;28;20195;-53
2022/07/16 13:27:56;;;;;;;6.65;1.80;;;;;;;;;;5055969;28;20210;-52
2022/07/16 13:30:22;;;;;;;5.53;1.77;;;;;;;;;;5050533;28;20186;-50
2022/07/16 13:32:49;;;;;;;5.95;1.40;;;;;;;;;;5055842;28;20577;-54
2022/07/16 13:35:16;;;;;;;7.18;1.20;;;;;;;;;;5066930;28;20187;-55
2022/07/16 13:37:42;;;;;;;6.05;1.25;;;;;;;;;;5073242;28;20183;-52
2022/07/16 13:40:09;;;;;;;4.60;1.58;;;;;;;;;;5045067;28;20676;-55
2022/07/16 13:42:35;;;;;;;8.60;1.52;;;;;;;;;;5069504;28;20297;-57
2022/07/16 13:45:02;;;;;;;6.68;1.48;;;;;;;;;;5069353;28;20186;-54
2022/07/16 13:47:28;;;;;;;6.50;1.55;;;;;;;;;;5057979;28;20230;-53
2022/07/16 13:49:54;;;;;;;8.20;1.38;;;;;;;;;;5072522;28;20190;-54
2022/07/16 13:52:20;;;;;;;3.78;1.30;;;;;;;;;;5072883;28;20186;-58
2022/07/16 13:54:47;;;;;;;5.50;1.58;;;;;;;;;;5072559;28;20193;-58
2022/07/16 13:59:58;;;;;;;5.28;1.50;;;;;;;;;;5064286;28;20272;-55
2022/07/16 14:02:24;;;;;;;5.97;1.55;;;;;;;;;;5058394;28;20183;-54
2022/07/16 14:04:50;;;;;;;5.05;1.40;;;;;;;;;;5063490;28;20186;-57
2022/07/16 14:07:17;;;;;;;5.57;1.42;;;;;;;;;;5073084;28;20273;-54
2022/07/16 14:09:43;;;;;;;5.93;1.70;;;;;;;;;;5055275;28;20191;-54
2022/07/16 14:12:10;;;;;;;5.80;1.40;;;;;;;;;;5073309;28;20179;-55
2022/07/16 14:14:36;;;;;;;7.20;1.65;;;;;;;;;;5055459;28;20231;-55
2022/07/16 14:17:03;;;;;;;12.50;1.70;;;;;;;;;;5058148;28;20616;-55
2022/07/16 14:19:30;;;;;;;7.35;1.77;;;;;;;;;;5072340;28;20667;-53
2022/07/16 14:21:56;;;;;;;8.15;1.15;;;;;;;;;;5038541;28;20248;-56
2022/07/16 14:24:22;;;;;;;6.18;1.50;;;;;;;;;;5038062;28;20177;-56
2022/07/16 14:26:48;;;;;;;9.43;1.55;;;;;;;;;;5047569;28;20199;-55
2022/07/16 14:29:14;;;;;;;7.35;1.48;;;;;;;;;;5057322;28;20269;-56
2022/07/16 14:31:41;;;;;;;8.82;1.73;;;;;;;;;;5071732;28;20182;-57
2022/07/16 14:34:08;;;;;;;5.10;1.48;;;;;;;;;;5053067;28;20195;-56
2022/07/16 14:36:35;;;;;;;8.10;1.70;;;;;;;;;;5054402;28;20179;-56
2022/07/16 14:39:01;;;;;;;4.32;1.35;;;;;;;;;;5055170;28;20786;-53
2022/07/16 14:41:27;;;;;;;6.13;1.10;;;;;;;;;;5042833;28;20569;-56
2022/07/16 14:43:54;;;;;;;6.63;2.35;;;;;;;;;;5056521;28;20187;-54
2022/07/16 14:46:20;;;;;;;6.15;1.83;;;;;;;;;;5072617;28;20189;-55
2022/07/16 14:48:46;;;;;;;6.75;1.48;;;;;;;;;;5040953;28;20209;-57
2022/07/16 14:51:13;;;;;;;5.10;1.35;;;;;;;;;;5065608;28;20275;-53
2022/07/16 14:53:39;;;;;;;8.18;1.70;;;;;;;;;;5058801;28;20193;-59
2022/07/16 14:56:06;;;;;;;3.95;1.20;;;;;;;;;;5052365;28;20270;-55
2022/07/16 14:58:34;;;;;;;5.95;1.30;;;;;;;;;;5055772;28;20216;-56